Huvudsida
METAR-TAF:

METAR-TAF

Flygplatser :

Ramsar Airport

Ramsar, Iran

latitud: 36-54N, longitud: 050-40E, höjd: -23 m

Aktuellt väderrapport

Denna rapport gjordes för 56 minuter sedan, klockan 14:00 UTC
Vind 6 kt från väst/sydväst
Temperatur 22°C
Fuktighet 88%
Tryck 1015 hPa
Sikt 10 km eller mer
Spridda moln på en höjd av 2000 ft, Cumulonimbus.
Spridda moln på en höjd av 2500 ft
Mulet på en höjd av 8000 ft

METAR: OINR 201400Z 24006KT 9999 SCT020CB SCT025 OVC080 22/20 Q1015

Tid: 19:26 (14:56 UTC)


TAF: saknas

Aktuella väderrapporter och prognoser från 4000 flygplatser (METAR- och TAF-rapporter).

De tillgängliga stationerna syns som gula och röda prickar på kartan.

För musen över prickarna för att se namnen på stationerna.

Klicka sedan för att få väderrapporter och prognoser.

För att ändra kartan: Klicka på de gröna knapparna med ett svart kors på för att zooma in; den gröna knappen med ett streck på för att zooma ut; eller på de gröna pilarna för angränsande kartor.


METAR-TAF: